Time;durP1;ratioP1;P1;durP2;ratioP2;P2;SDS_P1;SDS_P2;PMS_P1;PMS_P2;Temp;Humidity;BMP_temperature;BMP_pressure;BME280_temperature;BME280_humidity;BME280_pressure;Samples;Min_cycle;Max_cycle;Signal;HPM_P1;HPM_P2
2024/01/03 00:00:42;;;;;;;6.40;0.57;;;;;;;;;;5262629;28;20021;-76
2024/01/03 00:03:15;;;;;;;7.32;0.68;;;;;;;;;;5263339;28;20009;-78
2024/01/03 00:05:46;;;;;;;6.72;0.93;;;;;;;;;;5263452;28;20052;-76
2024/01/03 00:08:23;;;;;;;4.70;0.82;;;;;;;;;;5262344;28;20106;-77
2024/01/03 00:10:55;;;;;;;8.52;0.50;;;;;;;;;;5263386;28;20067;-75
2024/01/03 00:13:32;;;;;;;5.28;0.50;;;;;;;;;;5262692;28;20024;-75
2024/01/03 00:16:04;;;;;;;6.18;0.60;;;;;;;;;;5262358;28;20549;-76
2024/01/03 00:18:41;;;;;;;8.55;1.00;;;;;;;;;;5263178;28;20033;-76
2024/01/03 00:21:16;;;;;;;4.85;0.60;;;;;;;;;;5261965;28;20116;-76
2024/01/03 00:23:48;;;;;;;7.45;0.60;;;;;;;;;;5262141;28;20025;-76
2024/01/03 00:26:19;;;;;;;7.25;0.90;;;;;;;;;;5262687;28;20041;-76
2024/01/03 00:28:51;;;;;;;6.78;0.70;;;;;;;;;;5262071;28;20031;-76
2024/01/03 00:31:38;;;;;;;5.35;0.75;;;;;;;;;;5262138;28;20057;-77
2024/01/03 00:34:37;;;;;;;13.32;1.13;;;;;;;;;;5262686;28;20387;-77
2024/01/03 00:37:14;;;;;;;11.60;1.40;;;;;;;;;;5261961;28;20025;-77
2024/01/03 00:39:45;;;;;;;10.52;1.05;;;;;;;;;;5262335;28;20108;-77
2024/01/03 00:42:16;;;;;;;10.63;1.05;;;;;;;;;;5261546;28;20480;-77
2024/01/03 00:44:48;;;;;;;11.25;1.30;;;;;;;;;;5262604;28;20023;-77
2024/01/03 00:47:19;;;;;;;11.50;1.35;;;;;;;;;;5262498;28;20036;-77
2024/01/03 00:49:51;;;;;;;12.30;1.48;;;;;;;;;;5261776;28;20102;-77
2024/01/03 00:52:22;;;;;;;12.10;1.40;;;;;;;;;;5261839;28;20060;-77
2024/01/03 00:54:54;;;;;;;13.63;1.42;;;;;;;;;;5262410;28;20075;-77
2024/01/03 00:57:25;;;;;;;15.90;2.03;;;;;;;;;;5260931;28;20025;-76
2024/01/03 00:59:56;;;;;;;13.70;1.58;;;;;;;;;;5262134;28;20106;-77
2024/01/03 01:02:27;;;;;;;11.65;1.20;;;;;;;;;;5262133;28;20394;-77
2024/01/03 01:04:58;;;;;;;13.45;1.35;;;;;;;;;;5261470;28;20021;-77
2024/01/03 01:07:29;;;;;;;14.60;2.22;;;;;;;;;;5262030;28;20087;-77
2024/01/03 01:10:01;;;;;;;13.10;1.70;;;;;;;;;;5261951;28;20032;-77
2024/01/03 01:12:32;;;;;;;13.15;1.95;;;;;;;;;;5261265;28;20096;-76
2024/01/03 01:15:03;;;;;;;14.18;2.17;;;;;;;;;;5261980;28;20013;-76
2024/01/03 01:17:34;;;;;;;13.32;1.40;;;;;;;;;;5261067;28;20025;-77
2024/01/03 01:20:06;;;;;;;18.67;2.47;;;;;;;;;;5261666;28;20031;-77
2024/01/03 01:22:37;;;;;;;14.43;1.88;;;;;;;;;;5261536;28;20029;-77
2024/01/03 01:25:08;;;;;;;12.45;1.40;;;;;;;;;;5261141;28;20552;-77
2024/01/03 01:27:39;;;;;;;12.52;1.33;;;;;;;;;;5261751;28;20029;-77
2024/01/03 01:30:11;;;;;;;14.60;2.03;;;;;;;;;;5261665;28;20041;-76
2024/01/03 01:32:42;;;;;;;14.85;1.92;;;;;;;;;;5260634;28;20301;-77
2024/01/03 01:35:14;;;;;;;18.42;1.75;;;;;;;;;;5260775;28;20087;-77
2024/01/03 01:37:45;;;;;;;14.57;2.33;;;;;;;;;;5261330;28;20032;-77
2024/01/03 01:40:17;;;;;;;14.73;2.13;;;;;;;;;;5260584;28;20464;-77
2024/01/03 01:42:48;;;;;;;14.70;1.40;;;;;;;;;;5261369;28;20021;-76
2024/01/03 01:45:19;;;;;;;17.85;2.50;;;;;;;;;;5261404;28;20032;-76
2024/01/03 01:47:51;;;;;;;17.42;2.47;;;;;;;;;;5260687;28;20035;-76
2024/01/03 01:50:22;;;;;;;13.48;2.15;;;;;;;;;;5261364;28;20021;-76
2024/01/03 01:52:53;;;;;;;17.17;2.80;;;;;;;;;;5260829;28;20112;-76
2024/01/03 01:55:25;;;;;;;11.85;1.88;;;;;;;;;;5261047;28;20020;-76
2024/01/03 01:57:56;;;;;;;11.82;1.52;;;;;;;;;;5262245;28;20021;-76
2024/01/03 02:00:27;;;;;;;12.20;1.40;;;;;;;;;;5261785;28;20063;-77
2024/01/03 02:02:58;;;;;;;10.35;1.92;;;;;;;;;;5262082;28;20009;-76
2024/01/03 02:05:30;;;;;;;11.05;1.30;;;;;;;;;;5261234;28;20016;-76
2024/01/03 02:08:01;;;;;;;10.68;1.45;;;;;;;;;;5260150;28;20024;-76
2024/01/03 02:10:32;;;;;;;12.27;1.70;;;;;;;;;;5260918;28;20024;-77
2024/01/03 02:13:03;;;;;;;12.77;1.50;;;;;;;;;;5260874;28;20158;-77
2024/01/03 02:15:34;;;;;;;13.68;2.05;;;;;;;;;;5259801;28;20021;-77
2024/01/03 02:18:07;;;;;;;15.27;1.85;;;;;;;;;;5261233;28;20368;-76
2024/01/03 02:20:39;;;;;;;12.55;1.55;;;;;;;;;;5260230;28;20028;-77
2024/01/03 02:23:10;;;;;;;14.63;2.42;;;;;;;;;;5261300;28;20456;-77
2024/01/03 02:25:41;;;;;;;15.05;2.17;;;;;;;;;;5260793;28;20029;-77
2024/01/03 02:28:12;;;;;;;18.63;2.33;;;;;;;;;;5260137;28;20024;-77
2024/01/03 02:30:44;;;;;;;18.80;2.15;;;;;;;;;;5260305;28;20068;-77
2024/01/03 02:33:16;;;;;;;16.58;2.42;;;;;;;;;;5260518;28;20148;-77
2024/01/03 02:35:47;;;;;;;14.07;1.83;;;;;;;;;;5260194;28;20635;-76
2024/01/03 02:38:18;;;;;;;11.70;1.95;;;;;;;;;;5260747;28;20020;-76
2024/01/03 02:40:51;;;;;;;12.02;1.80;;;;;;;;;;5260615;28;20047;-77
2024/01/03 02:43:22;;;;;;;15.20;2.33;;;;;;;;;;5259283;28;20036;-77
2024/01/03 02:45:53;;;;;;;15.85;1.67;;;;;;;;;;5262260;28;20460;-77
2024/01/03 02:48:25;;;;;;;13.10;1.20;;;;;;;;;;5264570;28;20104;-76
2024/01/03 02:50:56;;;;;;;13.52;1.67;;;;;;;;;;5264179;28;20267;-77
2024/01/03 02:53:27;;;;;;;11.15;1.10;;;;;;;;;;5263990;28;20086;-76
2024/01/03 02:55:58;;;;;;;13.73;1.45;;;;;;;;;;5263428;28;20471;-76
2024/01/03 02:58:29;;;;;;;15.73;2.22;;;;;;;;;;5264324;28;20356;-76
2024/01/03 03:01:00;;;;;;;15.05;2.22;;;;;;;;;;5264454;28;20025;-76
2024/01/03 03:03:32;;;;;;;11.95;1.92;;;;;;;;;;5263436;28;20024;-75
2024/01/03 03:06:04;;;;;;;9.90;1.65;;;;;;;;;;5264131;28;20021;-76
2024/01/03 03:08:35;;;;;;;14.73;1.63;;;;;;;;;;5263907;28;20100;-76
2024/01/03 03:11:07;;;;;;;14.15;1.73;;;;;;;;;;5263694;28;20092;-76
2024/01/03 03:13:38;;;;;;;15.30;1.45;;;;;;;;;;5264180;28;20021;-76
2024/01/03 03:16:09;;;;;;;18.83;2.67;;;;;;;;;;5264220;28;20017;-76
2024/01/03 03:18:40;;;;;;;12.73;1.52;;;;;;;;;;5263133;28;20032;-76
2024/01/03 03:21:11;;;;;;;12.90;1.83;;;;;;;;;;5263965;28;20024;-76
2024/01/03 03:23:42;;;;;;;14.73;1.70;;;;;;;;;;5264020;28;20013;-76
2024/01/03 03:26:14;;;;;;;14.32;2.08;;;;;;;;;;5262943;28;20079;-76
2024/01/03 03:28:45;;;;;;;15.23;2.03;;;;;;;;;;5264019;28;20028;-76
2024/01/03 03:31:16;;;;;;;10.30;1.77;;;;;;;;;;5262966;28;20562;-77
2024/01/03 03:33:47;;;;;;;15.35;1.90;;;;;;;;;;5263947;28;20400;-76
2024/01/03 03:36:20;;;;;;;15.23;2.05;;;;;;;;;;5264002;28;20622;-76
2024/01/03 03:38:52;;;;;;;18.25;2.03;;;;;;;;;;5263138;28;20422;-76
2024/01/03 03:41:23;;;;;;;16.05;1.65;;;;;;;;;;5263270;28;20167;-76
2024/01/03 03:43:55;;;;;;;10.70;1.70;;;;;;;;;;5263852;28;20537;-79
2024/01/03 03:46:26;;;;;;;14.85;1.83;;;;;;;;;;5262343;28;20043;-76
2024/01/03 03:48:57;;;;;;;17.40;2.20;;;;;;;;;;5263470;28;20024;-76
2024/01/03 03:51:28;;;;;;;13.13;1.65;;;;;;;;;;5263372;28;20048;-76
2024/01/03 03:54:00;;;;;;;14.82;1.92;;;;;;;;;;5263172;28;20499;-77
2024/01/03 03:56:31;;;;;;;15.68;1.52;;;;;;;;;;5262935;28;20029;-77
2024/01/03 03:59:02;;;;;;;16.23;2.15;;;;;;;;;;5262489;28;20047;-77
2024/01/03 04:01:33;;;;;;;16.15;2.13;;;;;;;;;;5262537;28;20352;-77
2024/01/03 04:04:05;;;;;;;15.23;2.08;;;;;;;;;;5263231;28;20099;-77
2024/01/03 04:06:40;;;;;;;13.82;1.65;;;;;;;;;;5262447;28;20418;-77
2024/01/03 04:09:11;;;;;;;14.75;0.98;;;;;;;;;;5262980;28;20448;-77
2024/01/03 04:11:43;;;;;;;16.40;1.55;;;;;;;;;;5263092;28;20063;-77
2024/01/03 04:14:14;;;;;;;10.43;1.42;;;;;;;;;;5262123;28;20024;-78
2024/01/03 04:16:45;;;;;;;11.45;1.00;;;;;;;;;;5262882;28;20017;-77
2024/01/03 04:19:16;;;;;;;10.05;1.35;;;;;;;;;;5262912;28;20044;-77
2024/01/03 04:21:48;;;;;;;10.75;1.48;;;;;;;;;;5261949;28;20025;-77
2024/01/03 04:24:19;;;;;;;8.98;0.90;;;;;;;;;;5262880;28;20021;-77
2024/01/03 04:26:55;;;;;;;7.75;0.95;;;;;;;;;;5263110;28;20082;-77
2024/01/03 04:29:26;;;;;;;8.73;1.33;;;;;;;;;;5261600;28;20148;-78
2024/01/03 04:31:58;;;;;;;11.93;0.93;;;;;;;;;;5262724;28;20036;-77
2024/01/03 04:34:29;;;;;;;7.70;1.10;;;;;;;;;;5262018;28;20025;-77
2024/01/03 04:37:00;;;;;;;9.86;1.44;;;;;;;;;;5262807;28;20039;-77
2024/01/03 04:39:31;;;;;;;12.15;1.67;;;;;;;;;;5262411;28;20025;-77
2024/01/03 04:42:03;;;;;;;6.80;1.02;;;;;;;;;;5261544;28;20494;-77
2024/01/03 04:44:34;;;;;;;6.10;0.50;;;;;;;;;;5262215;28;20476;-77
2024/01/03 04:47:05;;;;;;;6.22;0.80;;;;;;;;;;5262199;28;20040;-77
2024/01/03 04:49:36;;;;;;;5.53;0.90;;;;;;;;;;5261665;28;20414;-76
2024/01/03 04:52:08;;;;;;;6.90;0.60;;;;;;;;;;5262165;28;20040;-77
2024/01/03 04:54:39;;;;;;;6.25;0.98;;;;;;;;;;5262090;28;20033;-77
2024/01/03 04:57:10;;;;;;;5.60;0.50;;;;;;;;;;5261449;28;20025;-77
2024/01/03 04:59:41;;;;;;;5.80;0.75;;;;;;;;;;5262109;28;20032;-76
2024/01/03 05:02:12;;;;;;;5.35;0.77;;;;;;;;;;5262227;28;20021;-76
2024/01/03 05:04:45;;;;;;;5.68;0.88;;;;;;;;;;5261343;28;20025;-77
2024/01/03 05:07:16;;;;;;;5.15;0.57;;;;;;;;;;5261766;28;20538;-77
2024/01/03 05:09:47;;;;;;;5.97;0.50;;;;;;;;;;5261221;28;20022;-77
2024/01/03 05:12:18;;;;;;;4.22;0.40;;;;;;;;;;5261988;28;20028;-77
2024/01/03 05:14:49;;;;;;;7.55;0.45;;;;;;;;;;5261792;28;20062;-77
2024/01/03 05:17:20;;;;;;;5.05;0.55;;;;;;;;;;5260883;28;20048;-77
2024/01/03 05:19:52;;;;;;;5.93;0.63;;;;;;;;;;5261709;28;20043;-76
2024/01/03 05:22:23;;;;;;;7.72;0.55;;;;;;;;;;5261338;28;20013;-77
2024/01/03 05:24:54;;;;;;;4.97;0.60;;;;;;;;;;5261119;28;20384;-77
2024/01/03 05:27:25;;;;;;;5.43;0.90;;;;;;;;;;5260973;28;20017;-77
2024/01/03 05:29:56;;;;;;;5.25;0.40;;;;;;;;;;5261604;28;20457;-77
2024/01/03 05:32:28;;;;;;;3.92;0.52;;;;;;;;;;5260433;28;20028;-76
2024/01/03 05:34:59;;;;;;;5.32;0.50;;;;;;;;;;5261649;28;20475;-77
2024/01/03 05:37:31;;;;;;;6.20;0.40;;;;;;;;;;5261583;28;20104;-77
2024/01/03 05:40:02;;;;;;;4.47;0.50;;;;;;;;;;5260603;28;20028;-77
2024/01/03 05:42:34;;;;;;;3.75;0.40;;;;;;;;;;5261193;28;20372;-77
2024/01/03 05:45:05;;;;;;;5.38;0.38;;;;;;;;;;5260340;28;20353;-77
2024/01/03 05:47:36;;;;;;;4.20;0.55;;;;;;;;;;5261378;28;20060;-78
2024/01/03 05:50:08;;;;;;;4.13;0.50;;;;;;;;;;5261638;28;20029;-78
2024/01/03 05:52:40;;;;;;;5.15;0.60;;;;;;;;;;5260471;28;20068;-79
2024/01/03 05:55:11;;;;;;;3.33;0.40;;;;;;;;;;5260985;28;20037;-78
2024/01/03 05:57:42;;;;;;;6.93;0.60;;;;;;;;;;5261021;28;20017;-78
2024/01/03 06:00:15;;;;;;;5.05;0.40;;;;;;;;;;5260205;28;20013;-79
2024/01/03 06:02:46;;;;;;;4.72;0.60;;;;;;;;;;5260984;28;20107;-80
2024/01/03 06:05:18;;;;;;;5.03;0.43;;;;;;;;;;5260793;28;20100;-81
2024/01/03 06:07:49;;;;;;;4.85;0.50;;;;;;;;;;5259755;28;20017;-80
2024/01/03 06:10:20;;;;;;;5.88;0.80;;;;;;;;;;5260594;28;20032;-80
2024/01/03 06:12:51;;;;;;;4.20;0.40;;;;;;;;;;5259656;28;20129;-80
2024/01/03 06:15:23;;;;;;;5.20;0.60;;;;;;;;;;5260365;28;20017;-78
2024/01/03 06:17:54;;;;;;;6.13;0.50;;;;;;;;;;5260813;28;20025;-79
2024/01/03 06:20:25;;;;;;;4.60;0.50;;;;;;;;;;5261459;28;20108;-79
2024/01/03 06:22:56;;;;;;;5.97;0.38;;;;;;;;;;5267573;28;20091;-80
2024/01/03 06:25:27;;;;;;;3.58;0.30;;;;;;;;;;5267685;28;20443;-79
2024/01/03 06:27:59;;;;;;;5.43;0.50;;;;;;;;;;5266827;28;20116;-79
2024/01/03 06:30:30;;;;;;;2.67;0.30;;;;;;;;;;5267758;28;20483;-79
2024/01/03 06:33:01;;;;;;;6.05;0.40;;;;;;;;;;5267564;28;20035;-78
2024/01/03 06:35:32;;;;;;;3.60;0.40;;;;;;;;;;5267000;28;20009;-78
2024/01/03 06:38:04;;;;;;;3.30;0.30;;;;;;;;;;5267527;28;20031;-78
2024/01/03 06:40:35;;;;;;;4.05;0.30;;;;;;;;;;5267608;28;20387;-78
2024/01/03 06:43:07;;;;;;;3.97;0.30;;;;;;;;;;5266762;28;20029;-77
2024/01/03 06:45:38;;;;;;;2.88;0.40;;;;;;;;;;5267578;28;20056;-78
2024/01/03 06:48:09;;;;;;;4.45;0.20;;;;;;;;;;5266625;28;20059;-77
2024/01/03 06:50:40;;;;;;;1.73;0.20;;;;;;;;;;5267335;28;20032;-78
2024/01/03 06:53:12;;;;;;;2.13;0.20;;;;;;;;;;5267235;28;20391;-77
2024/01/03 06:55:43;;;;;;;2.85;0.20;;;;;;;;;;5266665;28;20052;-77
2024/01/03 06:58:17;;;;;;;2.30;0.20;;;;;;;;;;5267603;28;20075;-78
2024/01/03 07:00:48;;;;;;;1.52;0.20;;;;;;;;;;5267416;28;20062;-79
2024/01/03 07:03:20;;;;;;;1.02;0.10;;;;;;;;;;5266770;28;20476;-77
2024/01/03 07:05:51;;;;;;;1.90;0.20;;;;;;;;;;5267411;28;20029;-78
2024/01/03 07:08:22;;;;;;;1.02;0.10;;;;;;;;;;5266921;28;20059;-79
2024/01/03 07:10:53;;;;;;;0.73;0.10;;;;;;;;;;5266383;28;20021;-77
2024/01/03 07:13:24;;;;;;;0.70;0.05;;;;;;;;;;5266411;28;20033;-78
2024/01/03 07:15:56;;;;;;;1.50;0.10;;;;;;;;;;5267428;28;20486;-79
2024/01/03 07:18:27;;;;;;;0.90;0.10;;;;;;;;;;5265966;28;20086;-78
2024/01/03 07:20:58;;;;;;;0.80;0.10;;;;;;;;;;5266848;28;20049;-79
2024/01/03 07:23:29;;;;;;;1.02;0.03;;;;;;;;;;5266450;28;20021;-79
2024/01/03 07:26:00;;;;;;;0.68;0.00;;;;;;;;;;5267075;28;20024;-78
2024/01/03 07:28:32;;;;;;;0.85;0.05;;;;;;;;;;5267023;28;20542;-77
2024/01/03 07:31:03;;;;;;;1.02;0.17;;;;;;;;;;5265878;28;20048;-79
2024/01/03 07:33:35;;;;;;;0.50;0.00;;;;;;;;;;5264230;28;20028;-78
2024/01/03 07:36:06;;;;;;;0.70;0.03;;;;;;;;;;5263553;28;20016;-77
2024/01/03 07:38:37;;;;;;;1.15;0.00;;;;;;;;;;5262917;28;20021;-77
2024/01/03 07:41:09;;;;;;;2.13;0.30;;;;;;;;;;5263398;28;20024;-78
2024/01/03 07:43:40;;;;;;;0.45;0.00;;;;;;;;;;5263596;28;20794;-79
2024/01/03 07:46:14;;;;;;;0.77;0.00;;;;;;;;;;5262526;28;20171;-79
2024/01/03 07:48:45;;;;;;;1.05;0.10;;;;;;;;;;5263588;28;20013;-79
2024/01/03 07:51:19;;;;;;;3.13;0.10;;;;;;;;;;5262679;28;20083;-81
2024/01/03 07:53:50;;;;;;;1.88;0.10;;;;;;;;;;5263424;28;20403;-79
2024/01/03 07:56:21;;;;;;;0.85;0.10;;;;;;;;;;5262953;28;20027;-79
2024/01/03 07:58:53;;;;;;;1.95;0.20;;;;;;;;;;5263043;28;20021;-80
2024/01/03 08:01:24;;;;;;;3.55;0.20;;;;;;;;;;5263023;28;20017;-78
2024/01/03 08:03:55;;;;;;;2.65;0.20;;;;;;;;;;5263572;28;20071;-78
2024/01/03 08:06:26;;;;;;;2.66;0.40;;;;;;;;;;5262721;28;20017;-78
2024/01/03 08:08:57;;;;;;;3.17;0.30;;;;;;;;;;5263304;28;20021;-78
2024/01/03 08:11:29;;;;;;;3.13;0.22;;;;;;;;;;5262853;28;20106;-78
2024/01/03 08:14:00;;;;;;;3.63;0.47;;;;;;;;;;5262071;28;20476;-78
2024/01/03 08:16:31;;;;;;;2.33;0.30;;;;;;;;;;5262779;28;20044;-78
2024/01/03 08:19:02;;;;;;;2.58;0.30;;;;;;;;;;5262574;28;20032;-77
2024/01/03 08:21:33;;;;;;;4.75;0.40;;;;;;;;;;5262309;28;20031;-78
2024/01/03 08:24:05;;;;;;;4.65;0.57;;;;;;;;;;5262980;28;20045;-78
2024/01/03 08:26:36;;;;;;;4.85;0.40;;;;;;;;;;5261736;28;20032;-79
2024/01/03 08:29:10;;;;;;;5.15;0.70;;;;;;;;;;5262284;28;20052;-79
2024/01/03 08:31:41;;;;;;;5.18;0.85;;;;;;;;;;5262528;28;20028;-78
2024/01/03 08:34:12;;;;;;;8.20;0.35;;;;;;;;;;5261872;28;20025;-79
2024/01/03 08:36:44;;;;;;;5.95;0.70;;;;;;;;;;5262366;28;20464;-81
2024/01/03 08:39:15;;;;;;;4.10;0.38;;;;;;;;;;5262442;28;20373;-79
2024/01/03 08:41:53;;;;;;;9.30;0.70;;;;;;;;;;5261644;28;20368;-78
2024/01/03 08:44:25;;;;;;;4.97;0.60;;;;;;;;;;5261413;28;20033;-80
2024/01/03 08:46:56;;;;;;;6.28;0.68;;;;;;;;;;5262764;28;20426;-79
2024/01/03 08:49:27;;;;;;;7.28;0.63;;;;;;;;;;5260967;28;20032;-80
2024/01/03 08:51:58;;;;;;;7.45;1.20;;;;;;;;;;5262062;28;20032;-80
2024/01/03 08:54:29;;;;;;;8.25;0.80;;;;;;;;;;5261879;28;20032;-77
2024/01/03 08:57:00;;;;;;;6.03;0.70;;;;;;;;;;5262126;28;20052;-78
2024/01/03 08:59:32;;;;;;;12.20;0.93;;;;;;;;;;5262154;28;20025;-79
2024/01/03 09:02:03;;;;;;;5.32;0.60;;;;;;;;;;5261091;28;20020;-79
2024/01/03 09:04:34;;;;;;;9.25;1.08;;;;;;;;;;5261765;28;20476;-78
2024/01/03 09:07:05;;;;;;;8.30;0.70;;;;;;;;;;5261722;28;20055;-77
2024/01/03 09:09:38;;;;;;;8.70;0.73;;;;;;;;;;5257279;28;20024;-77
2024/01/03 09:12:10;;;;;;;16.27;1.20;;;;;;;;;;5261740;28;20025;-77
2024/01/03 09:14:42;;;;;;;10.73;1.20;;;;;;;;;;5261453;28;20530;-77
2024/01/03 09:17:13;;;;;;;9.98;1.00;;;;;;;;;;5260382;28;20029;-78
2024/01/03 09:19:44;;;;;;;9.65;0.90;;;;;;;;;;5261174;28;20098;-76
2024/01/03 09:22:16;;;;;;;15.95;2.13;;;;;;;;;;5261588;28;20136;-78
2024/01/03 09:24:47;;;;;;;17.30;1.40;;;;;;;;;;5259761;28;20107;-77
2024/01/03 09:27:18;;;;;;;15.68;1.33;;;;;;;;;;5261206;28;20421;-78
2024/01/03 09:29:49;;;;;;;13.32;1.83;;;;;;;;;;5259942;28;20059;-80
2024/01/03 09:32:21;;;;;;;10.88;0.95;;;;;;;;;;5261173;28;20040;-78
2024/01/03 09:34:52;;;;;;;11.98;1.42;;;;;;;;;;5261830;28;20040;-79
2024/01/03 09:37:23;;;;;;;14.60;1.48;;;;;;;;;;5260261;28;20028;-79
2024/01/03 09:39:54;;;;;;;8.95;1.25;;;;;;;;;;5261704;28;20397;-75
2024/01/03 09:42:26;;;;;;;8.13;1.17;;;;;;;;;;5260886;28;20037;-77
2024/01/03 09:44:57;;;;;;;9.20;1.05;;;;;;;;;;5260720;28;20025;-78
2024/01/03 09:47:28;;;;;;;10.52;1.33;;;;;;;;;;5261808;28;20017;-79
2024/01/03 09:49:59;;;;;;;12.93;1.55;;;;;;;;;;5261621;28;20029;-73
2024/01/03 09:52:31;;;;;;;11.90;1.38;;;;;;;;;;5260158;28;20091;-76
2024/01/03 09:55:02;;;;;;;8.10;1.00;;;;;;;;;;5260202;28;20013;-77
2024/01/03 09:57:33;;;;;;;12.48;1.10;;;;;;;;;;5261147;28;20055;-80
2024/01/03 10:00:05;;;;;;;12.60;1.65;;;;;;;;;;5260156;28;20013;-77
2024/01/03 10:02:36;;;;;;;10.93;1.23;;;;;;;;;;5261102;28;20027;-78
2024/01/03 10:05:17;;;;;;;13.63;1.80;;;;;;;;;;5260156;28;20634;-77
2024/01/03 10:07:48;;;;;;;14.10;1.27;;;;;;;;;;5261037;28;20029;-78
2024/01/03 10:10:30;;;;;;;12.73;1.50;;;;;;;;;;5260695;28;20115;-79
2024/01/03 10:13:19;;;;;;;11.63;1.85;;;;;;;;;;5260278;28;20480;-78
2024/01/03 10:15:51;;;;;;;15.88;1.27;;;;;;;;;;5261361;28;20017;-78
2024/01/03 10:18:22;;;;;;;9.43;1.40;;;;;;;;;;5260600;28;20025;-81
2024/01/03 10:20:53;;;;;;;16.27;1.75;;;;;;;;;;5260685;28;20025;-76
2024/01/03 10:23:24;;;;;;;10.65;1.73;;;;;;;;;;5260239;28;20070;-80
2024/01/03 10:25:56;;;;;;;13.40;1.50;;;;;;;;;;5260851;28;20044;-78
2024/01/03 10:28:28;;;;;;;15.07;1.67;;;;;;;;;;5260797;28;20064;-79
2024/01/03 10:30:59;;;;;;;13.18;1.55;;;;;;;;;;5260786;28;20045;-78
2024/01/03 10:33:30;;;;;;;16.23;1.95;;;;;;;;;;5260067;28;20567;-77
2024/01/03 10:36:07;;;;;;;13.68;1.30;;;;;;;;;;5260643;28;20023;-79
2024/01/03 10:38:40;;;;;;;15.52;2.13;;;;;;;;;;5260546;28;20112;-79
2024/01/03 10:41:11;;;;;;;15.18;1.75;;;;;;;;;;5260002;28;20104;-80
2024/01/03 10:43:43;;;;;;;13.75;1.90;;;;;;;;;;5260959;28;20116;-79
2024/01/03 10:46:15;;;;;;;15.95;1.52;;;;;;;;;;5260509;28;20028;-77
2024/01/03 10:48:46;;;;;;;17.25;2.55;;;;;;;;;;5259770;28;20537;-78
2024/01/03 10:51:20;;;;;;;9.60;1.33;;;;;;;;;;5260327;28;20035;-78
2024/01/03 10:53:53;;;;;;;12.25;1.70;;;;;;;;;;5260485;28;20045;-80
2024/01/03 10:56:24;;;;;;;12.93;1.75;;;;;;;;;;5259378;28;20353;-78
2024/01/03 10:58:56;;;;;;;12.68;1.42;;;;;;;;;;5260848;28;20028;-79
2024/01/03 11:01:29;;;;;;;15.00;1.42;;;;;;;;;;5259151;28;20124;-78
2024/01/03 11:04:04;;;;;;;13.52;1.60;;;;;;;;;;5260637;28;20025;-78
2024/01/03 11:06:35;;;;;;;14.48;1.63;;;;;;;;;;5261290;28;20021;-79
2024/01/03 11:09:07;;;;;;;12.98;1.40;;;;;;;;;;5263554;28;20040;-78
2024/01/03 11:11:38;;;;;;;12.25;2.08;;;;;;;;;;5264264;28;20371;-75
2024/01/03 11:14:18;;;;;;;13.48;1.83;;;;;;;;;;5264129;28;20480;-83
2024/01/03 11:16:50;;;;;;;17.52;2.53;;;;;;;;;;5263794;28;20074;-76
2024/01/03 11:19:26;;;;;;;13.77;1.35;;;;;;;;;;5263616;28;20029;-79
2024/01/03 11:21:58;;;;;;;13.95;1.30;;;;;;;;;;5263777;28;20075;-78
2024/01/03 11:24:30;;;;;;;15.90;2.65;;;;;;;;;;5263526;28;20021;-79
2024/01/03 11:27:04;;;;;;;12.77;1.52;;;;;;;;;;5263809;28;20035;-74
2024/01/03 11:29:35;;;;;;;12.15;1.50;;;;;;;;;;5263119;28;20072;-79
2024/01/03 11:32:07;;;;;;;10.75;1.25;;;;;;;;;;5264052;28;20029;-78
2024/01/03 11:34:45;;;;;;;13.10;1.85;;;;;;;;;;5263635;28;20025;-76
2024/01/03 11:37:17;;;;;;;14.73;1.58;;;;;;;;;;5262812;28;20197;-82
2024/01/03 11:39:52;;;;;;;11.77;1.70;;;;;;;;;;5263569;28;20021;-80
2024/01/03 11:42:28;;;;;;;7.07;0.88;;;;;;;;;;5261485;28;20491;-81
2024/01/03 11:45:06;;;;;;;7.47;1.73;;;;;;;;;;5262520;28;20035;-80
2024/01/03 11:47:40;;;;;;;7.38;0.65;;;;;;;;;;5263553;28;20036;-80
2024/01/03 11:50:12;;;;;;;9.00;0.60;;;;;;;;;;5262385;28;20102;-79
2024/01/03 11:52:48;;;;;;;5.47;0.50;;;;;;;;;;5262816;28;20056;-80
2024/01/03 11:55:21;;;;;;;6.57;0.50;;;;;;;;;;5263389;28;20028;-81
2024/01/03 11:58:01;;;;;;;7.65;1.27;;;;;;;;;;5262856;28;20032;-78
2024/01/03 12:00:32;;;;;;;4.90;0.47;;;;;;;;;;5263659;28;20055;-79
2024/01/03 12:03:03;;;;;;;3.92;0.40;;;;;;;;;;5263132;28;20099;-79
2024/01/03 12:05:43;;;;;;;5.20;0.50;;;;;;;;;;5262537;28;20602;-79
2024/01/03 12:08:14;;;;;;;2.20;0.35;;;;;;;;;;5263138;28;20023;-78
2024/01/03 12:10:45;;;;;;;3.22;0.30;;;;;;;;;;5263273;28;20009;-79
2024/01/03 12:13:16;;;;;;;3.42;0.30;;;;;;;;;;5262443;28;20056;-78
2024/01/03 12:15:48;;;;;;;2.67;0.30;;;;;;;;;;5263393;28;20016;-78
2024/01/03 12:18:21;;;;;;;3.65;0.50;;;;;;;;;;5262054;28;20074;-79
2024/01/03 12:20:53;;;;;;;2.22;0.20;;;;;;;;;;5262548;28;20005;-79
2024/01/03 12:23:25;;;;;;;1.52;0.20;;;;;;;;;;5262609;28;20032;-79
2024/01/03 12:25:56;;;;;;;4.35;0.50;;;;;;;;;;5262400;28;20055;-80
2024/01/03 12:28:27;;;;;;;2.13;0.30;;;;;;;;;;5262690;28;20031;-79
2024/01/03 12:30:59;;;;;;;1.73;0.20;;;;;;;;;;5262267;28;20091;-79
2024/01/03 12:33:30;;;;;;;1.65;0.22;;;;;;;;;;5261900;28;20032;-79
2024/01/03 12:36:05;;;;;;;2.33;0.28;;;;;;;;;;5262951;28;20464;-79
2024/01/03 12:38:36;;;;;;;3.38;0.60;;;;;;;;;;5262601;28;20023;-79
2024/01/03 12:41:08;;;;;;;1.95;0.20;;;;;;;;;;5261864;28;20013;-79
2024/01/03 12:43:39;;;;;;;2.30;0.20;;;;;;;;;;5262500;28;20627;-78
2024/01/03 12:46:10;;;;;;;2.10;0.25;;;;;;;;;;5262771;28;20024;-79
2024/01/03 12:48:41;;;;;;;3.15;0.30;;;;;;;;;;5261765;28;20052;-79
2024/01/03 12:51:13;;;;;;;3.33;0.20;;;;;;;;;;5262432;28;20024;-79
2024/01/03 12:53:44;;;;;;;4.60;0.40;;;;;;;;;;5261292;28;20025;-79
2024/01/03 12:56:15;;;;;;;3.92;0.35;;;;;;;;;;5262147;28;20530;-77
2024/01/03 12:58:46;;;;;;;5.13;0.30;;;;;;;;;;5262095;28;20036;-79
2024/01/03 13:01:17;;;;;;;2.50;0.30;;;;;;;;;;5261359;28;20036;-79
2024/01/03 13:03:48;;;;;;;5.28;0.40;;;;;;;;;;5262137;28;20425;-79
2024/01/03 13:06:20;;;;;;;3.97;0.60;;;;;;;;;;5262105;28;20028;-79
2024/01/03 13:08:51;;;;;;;4.97;0.35;;;;;;;;;;5261090;28;20096;-79
2024/01/03 13:11:22;;;;;;;4.68;0.50;;;;;;;;;;5261417;28;20017;-80
2024/01/03 13:13:53;;;;;;;5.10;0.43;;;;;;;;;;5262103;28;20511;-79
2024/01/03 13:16:24;;;;;;;5.57;0.50;;;;;;;;;;5260883;28;20440;-79
2024/01/03 13:18:56;;;;;;;7.32;1.42;;;;;;;;;;5261899;28;20021;-78
2024/01/03 13:21:27;;;;;;;4.45;0.52;;;;;;;;;;5261682;28;20066;-79
2024/01/03 13:23:58;;;;;;;4.28;0.60;;;;;;;;;;5260991;28;20159;-79
2024/01/03 13:26:30;;;;;;;5.53;0.70;;;;;;;;;;5261826;28;20013;-78
2024/01/03 13:29:01;;;;;;;4.32;0.80;;;;;;;;;;5260642;28;20013;-78
2024/01/03 13:31:32;;;;;;;5.72;0.60;;;;;;;;;;5261443;28;20028;-79
2024/01/03 13:34:04;;;;;;;4.40;0.60;;;;;;;;;;5261623;28;20107;-79
2024/01/03 13:36:36;;;;;;;11.85;1.20;;;;;;;;;;5260745;28;20104;-79
2024/01/03 13:39:09;;;;;;;6.03;0.70;;;;;;;;;;5261495;28;20048;-78
2024/01/03 13:41:41;;;;;;;8.90;0.65;;;;;;;;;;5261292;28;20128;-78
2024/01/03 13:44:12;;;;;;;4.93;0.52;;;;;;;;;;5260564;28;20483;-78
2024/01/03 13:46:43;;;;;;;7.55;0.90;;;;;;;;;;5261228;28;20029;-79
2024/01/03 13:49:14;;;;;;;8.88;0.80;;;;;;;;;;5261472;28;20017;-79
2024/01/03 13:51:46;;;;;;;7.22;0.82;;;;;;;;;;5260452;28;20028;-79
2024/01/03 13:54:20;;;;;;;6.57;0.70;;;;;;;;;;5260952;28;20047;-79
2024/01/03 13:56:51;;;;;;;6.97;0.85;;;;;;;;;;5261099;28;20020;-79
2024/01/03 13:59:22;;;;;;;8.32;1.20;;;;;;;;;;5260037;28;20024;-80
2024/01/03 14:01:54;;;;;;;6.78;0.90;;;;;;;;;;5261288;28;20013;-79
2024/01/03 14:04:25;;;;;;;3.90;0.80;;;;;;;;;;5260082;28;20469;-77
2024/01/03 14:06:56;;;;;;;9.95;1.08;;;;;;;;;;5260807;28;20025;-77
2024/01/03 14:09:27;;;;;;;8.90;0.80;;;;;;;;;;5260738;28;20021;-80
2024/01/03 14:11:58;;;;;;;7.18;0.80;;;;;;;;;;5260121;28;20388;-78
2024/01/03 14:14:30;;;;;;;7.60;0.88;;;;;;;;;;5259611;28;20365;-78
2024/01/03 14:17:03;;;;;;;4.35;0.65;;;;;;;;;;5261011;28;20027;-79
2024/01/03 14:19:35;;;;;;;3.67;0.50;;;;;;;;;;5259980;28;20047;-79
2024/01/03 14:22:06;;;;;;;9.23;0.80;;;;;;;;;;5261010;28;20020;-78
2024/01/03 14:24:37;;;;;;;4.72;0.60;;;;;;;;;;5260857;28;20029;-79
2024/01/03 14:27:08;;;;;;;7.65;0.70;;;;;;;;;;5259992;28;20020;-79
2024/01/03 14:29:39;;;;;;;7.20;0.70;;;;;;;;;;5260592;28;20045;-78
2024/01/03 14:32:12;;;;;;;6.45;1.05;;;;;;;;;;5259856;28;20037;-80
2024/01/03 14:34:43;;;;;;;12.10;1.30;;;;;;;;;;5260829;28;20032;-78
2024/01/03 14:37:17;;;;;;;8.30;1.00;;;;;;;;;;5260570;28;20096;-79
2024/01/03 14:39:49;;;;;;;6.63;0.95;;;;;;;;;;5259541;28;20063;-79
2024/01/03 14:42:23;;;;;;;7.10;1.23;;;;;;;;;;5262563;28;20433;-75
2024/01/03 14:44:54;;;;;;;3.38;0.63;;;;;;;;;;5264992;28;20009;-81
2024/01/03 14:47:25;;;;;;;9.13;0.90;;;;;;;;;;5263832;28;20534;-78
2024/01/03 14:49:56;;;;;;;8.40;0.93;;;;;;;;;;5264688;28;20074;-78
2024/01/03 14:52:27;;;;;;;5.75;0.75;;;;;;;;;;5264373;28;20028;-78
2024/01/03 14:54:59;;;;;;;7.07;0.50;;;;;;;;;;5263713;28;20480;-78
2024/01/03 14:57:30;;;;;;;9.23;0.93;;;;;;;;;;5264512;28;20017;-76
2024/01/03 15:00:01;;;;;;;7.18;0.70;;;;;;;;;;5264475;28;20040;-76
2024/01/03 15:02:32;;;;;;;9.40;0.98;;;;;;;;;;5263849;28;20100;-77
2024/01/03 15:05:04;;;;;;;5.45;0.60;;;;;;;;;;5264319;28;20025;-76